sensor_id;sensor_type;location;lat;lon;timestamp;temperature;humidity
66728;DHT22;53641;44.274;19.890;2022-07-29T00:00:05;22.20;86.20
66728;DHT22;53641;44.274;19.890;2022-07-29T00:02:31;22.10;86.50
66728;DHT22;53641;44.274;19.890;2022-07-29T00:04:57;22.10;86.20
66728;DHT22;53641;44.274;19.890;2022-07-29T00:07:23;22.10;86.40
66728;DHT22;53641;44.274;19.890;2022-07-29T00:09:49;22.00;86.40
66728;DHT22;53641;44.274;19.890;2022-07-29T00:12:15;22.00;86.70
66728;DHT22;53641;44.274;19.890;2022-07-29T00:14:41;22.00;86.60
66728;DHT22;53641;44.274;19.890;2022-07-29T00:17:06;22.00;86.30
66728;DHT22;53641;44.274;19.890;2022-07-29T00:19:32;22.00;86.80
66728;DHT22;53641;44.274;19.890;2022-07-29T00:21:59;22.00;87.10
66728;DHT22;53641;44.274;19.890;2022-07-29T00:24:25;21.90;87.40
66728;DHT22;53641;44.274;19.890;2022-07-29T00:26:51;21.80;87.80
66728;DHT22;53641;44.274;19.890;2022-07-29T00:29:17;21.90;87.90
66728;DHT22;53641;44.274;19.890;2022-07-29T00:31:43;21.90;88.00
66728;DHT22;53641;44.274;19.890;2022-07-29T00:34:09;21.90;88.20
66728;DHT22;53641;44.274;19.890;2022-07-29T00:36:55;21.90;87.80
66728;DHT22;53641;44.274;19.890;2022-07-29T00:39:20;21.90;87.80
66728;DHT22;53641;44.274;19.890;2022-07-29T00:41:46;21.90;87.90
66728;DHT22;53641;44.274;19.890;2022-07-29T00:44:12;21.80;88.00
66728;DHT22;53641;44.274;19.890;2022-07-29T00:46:38;21.80;88.20
66728;DHT22;53641;44.274;19.890;2022-07-29T00:49:04;21.70;88.40
66728;DHT22;53641;44.274;19.890;2022-07-29T00:51:30;21.70;88.40
66728;DHT22;53641;44.274;19.890;2022-07-29T00:53:56;21.70;88.50
66728;DHT22;53641;44.274;19.890;2022-07-29T00:56:22;21.70;88.70
66728;DHT22;53641;44.274;19.890;2022-07-29T00:58:50;21.70;88.80
66728;DHT22;53641;44.274;19.890;2022-07-29T01:01:16;21.70;89.00
66728;DHT22;53641;44.274;19.890;2022-07-29T01:03:43;21.70;88.60
66728;DHT22;53641;44.274;19.890;2022-07-29T01:06:09;21.70;88.90
66728;DHT22;53641;44.274;19.890;2022-07-29T01:08:36;21.60;89.10
66728;DHT22;53641;44.274;19.890;2022-07-29T01:11:02;21.50;89.20
66728;DHT22;53641;44.274;19.890;2022-07-29T01:13:29;21.60;89.40
66728;DHT22;53641;44.274;19.890;2022-07-29T01:15:59;21.50;89.60
66728;DHT22;53641;44.274;19.890;2022-07-29T01:21:23;21.50;89.20
66728;DHT22;53641;44.274;19.890;2022-07-29T01:24:19;21.30;89.90
66728;DHT22;53641;44.274;19.890;2022-07-29T01:27:50;21.30;90.20
66728;DHT22;53641;44.274;19.890;2022-07-29T01:29:56;21.30;90.20
66728;DHT22;53641;44.274;19.890;2022-07-29T01:32:27;21.10;90.40
66728;DHT22;53641;44.274;19.890;2022-07-29T01:35:04;21.00;90.70
66728;DHT22;53641;44.274;19.890;2022-07-29T01:38:06;21.10;90.80
66728;DHT22;53641;44.274;19.890;2022-07-29T01:40:35;21.10;91.00
66728;DHT22;53641;44.274;19.890;2022-07-29T01:43:07;21.10;90.80
66728;DHT22;53641;44.274;19.890;2022-07-29T01:45:41;21.10;90.80
66728;DHT22;53641;44.274;19.890;2022-07-29T01:48:16;21.00;90.80
66728;DHT22;53641;44.274;19.890;2022-07-29T01:51:04;21.00;90.90
66728;DHT22;53641;44.274;19.890;2022-07-29T01:53:46;21.00;91.10
66728;DHT22;53641;44.274;19.890;2022-07-29T01:56:13;21.00;90.90
66728;DHT22;53641;44.274;19.890;2022-07-29T01:58:43;21.10;90.90
66728;DHT22;53641;44.274;19.890;2022-07-29T02:01:12;21.00;91.00
66728;DHT22;53641;44.274;19.890;2022-07-29T02:03:39;20.90;91.40
66728;DHT22;53641;44.274;19.890;2022-07-29T02:06:08;20.90;91.30
66728;DHT22;53641;44.274;19.890;2022-07-29T02:08:35;20.90;91.40
66728;DHT22;53641;44.274;19.890;2022-07-29T02:11:04;20.80;91.50
66728;DHT22;53641;44.274;19.890;2022-07-29T02:13:31;20.90;91.80
66728;DHT22;53641;44.274;19.890;2022-07-29T02:16:00;20.90;91.70
66728;DHT22;53641;44.274;19.890;2022-07-29T02:18:28;20.90;91.60
66728;DHT22;53641;44.274;19.890;2022-07-29T02:20:56;20.90;91.50
66728;DHT22;53641;44.274;19.890;2022-07-29T02:23:25;20.90;91.50
66728;DHT22;53641;44.274;19.890;2022-07-29T02:25:56;20.80;91.50
66728;DHT22;53641;44.274;19.890;2022-07-29T02:28:24;20.80;91.80
66728;DHT22;53641;44.274;19.890;2022-07-29T02:30:52;20.80;92.00
66728;DHT22;53641;44.274;19.890;2022-07-29T02:33:19;20.80;91.90
66728;DHT22;53641;44.274;19.890;2022-07-29T02:35:46;20.70;92.10
66728;DHT22;53641;44.274;19.890;2022-07-29T02:38:14;20.60;92.30
66728;DHT22;53641;44.274;19.890;2022-07-29T02:41:04;20.60;92.40
66728;DHT22;53641;44.274;19.890;2022-07-29T02:43:32;20.60;92.30
66728;DHT22;53641;44.274;19.890;2022-07-29T02:46:00;20.60;92.40
66728;DHT22;53641;44.274;19.890;2022-07-29T02:48:34;20.60;92.20
66728;DHT22;53641;44.274;19.890;2022-07-29T02:51:11;20.60;92.40
66728;DHT22;53641;44.274;19.890;2022-07-29T02:53:38;20.50;92.50
66728;DHT22;53641;44.274;19.890;2022-07-29T02:56:14;20.50;92.60
66728;DHT22;53641;44.274;19.890;2022-07-29T02:58:47;20.40;92.80
66728;DHT22;53641;44.274;19.890;2022-07-29T03:01:18;20.40;93.00
66728;DHT22;53641;44.274;19.890;2022-07-29T03:03:46;20.40;93.10
66728;DHT22;53641;44.274;19.890;2022-07-29T03:06:15;20.30;93.20
66728;DHT22;53641;44.274;19.890;2022-07-29T03:08:42;20.40;93.40
66728;DHT22;53641;44.274;19.890;2022-07-29T03:11:10;20.40;93.30
66728;DHT22;53641;44.274;19.890;2022-07-29T03:13:36;20.50;93.20
66728;DHT22;53641;44.274;19.890;2022-07-29T03:16:03;20.50;93.30
66728;DHT22;53641;44.274;19.890;2022-07-29T03:18:30;20.40;93.40
66728;DHT22;53641;44.274;19.890;2022-07-29T03:20:56;20.50;93.60
66728;DHT22;53641;44.274;19.890;2022-07-29T03:23:23;20.40;93.40
66728;DHT22;53641;44.274;19.890;2022-07-29T03:25:52;20.40;93.30
66728;DHT22;53641;44.274;19.890;2022-07-29T03:28:21;20.40;93.40
66728;DHT22;53641;44.274;19.890;2022-07-29T03:30:48;20.30;93.50
66728;DHT22;53641;44.274;19.890;2022-07-29T03:33:14;20.40;93.50
66728;DHT22;53641;44.274;19.890;2022-07-29T03:35:40;20.40;93.40
66728;DHT22;53641;44.274;19.890;2022-07-29T03:38:06;20.40;93.30
66728;DHT22;53641;44.274;19.890;2022-07-29T03:40:35;20.40;93.40
66728;DHT22;53641;44.274;19.890;2022-07-29T03:43:04;20.40;93.60
66728;DHT22;53641;44.274;19.890;2022-07-29T03:45:32;20.40;93.50
66728;DHT22;53641;44.274;19.890;2022-07-29T03:48:07;20.20;93.80
66728;DHT22;53641;44.274;19.890;2022-07-29T03:50:34;20.30;93.80
66728;DHT22;53641;44.274;19.890;2022-07-29T03:53:01;20.40;93.80
66728;DHT22;53641;44.274;19.890;2022-07-29T03:55:29;20.50;93.50
66728;DHT22;53641;44.274;19.890;2022-07-29T03:57:57;20.50;93.50
66728;DHT22;53641;44.274;19.890;2022-07-29T04:00:24;20.40;93.40
66728;DHT22;53641;44.274;19.890;2022-07-29T04:02:51;20.50;93.20
66728;DHT22;53641;44.274;19.890;2022-07-29T04:05:17;20.50;93.00
66728;DHT22;53641;44.274;19.890;2022-07-29T04:07:44;20.40;93.00
66728;DHT22;53641;44.274;19.890;2022-07-29T04:10:10;20.50;93.20
66728;DHT22;53641;44.274;19.890;2022-07-29T04:12:36;20.50;93.20
66728;DHT22;53641;44.274;19.890;2022-07-29T04:15:05;20.50;93.00
66728;DHT22;53641;44.274;19.890;2022-07-29T04:17:31;20.60;93.40
66728;DHT22;53641;44.274;19.890;2022-07-29T04:19:57;20.60;93.60
66728;DHT22;53641;44.274;19.890;2022-07-29T04:22:23;20.70;93.50
66728;DHT22;53641;44.274;19.890;2022-07-29T04:24:49;20.70;93.30
66728;DHT22;53641;44.274;19.890;2022-07-29T04:27:14;20.80;93.10
66728;DHT22;53641;44.274;19.890;2022-07-29T04:29:40;20.80;93.10
66728;DHT22;53641;44.274;19.890;2022-07-29T04:32:06;20.80;92.60
66728;DHT22;53641;44.274;19.890;2022-07-29T04:34:32;21.00;92.60
66728;DHT22;53641;44.274;19.890;2022-07-29T04:36:57;21.00;92.20
66728;DHT22;53641;44.274;19.890;2022-07-29T04:39:23;21.10;92.10
66728;DHT22;53641;44.274;19.890;2022-07-29T04:41:50;21.20;92.10
66728;DHT22;53641;44.274;19.890;2022-07-29T04:44:16;21.30;91.80
66728;DHT22;53641;44.274;19.890;2022-07-29T04:46:42;21.50;91.40
66728;DHT22;53641;44.274;19.890;2022-07-29T04:49:07;22.00;91.10
66728;DHT22;53641;44.274;19.890;2022-07-29T04:51:33;22.30;90.00
66728;DHT22;53641;44.274;19.890;2022-07-29T04:53:59;22.30;89.20
66728;DHT22;53641;44.274;19.890;2022-07-29T04:56:25;22.30;88.30
66728;DHT22;53641;44.274;19.890;2022-07-29T04:58:51;22.30;88.20
66728;DHT22;53641;44.274;19.890;2022-07-29T05:01:17;22.20;88.40
66728;DHT22;53641;44.274;19.890;2022-07-29T05:03:43;22.30;88.60
66728;DHT22;53641;44.274;19.890;2022-07-29T05:06:09;22.60;88.90
66728;DHT22;53641;44.274;19.890;2022-07-29T05:08:35;22.90;87.70
66728;DHT22;53641;44.274;19.890;2022-07-29T05:11:00;23.10;86.10
66728;DHT22;53641;44.274;19.890;2022-07-29T05:13:26;23.20;85.10
66728;DHT22;53641;44.274;19.890;2022-07-29T05:15:52;23.40;84.80
66728;DHT22;53641;44.274;19.890;2022-07-29T05:18:18;23.50;83.90
66728;DHT22;53641;44.274;19.890;2022-07-29T05:20:43;23.60;84.10
66728;DHT22;53641;44.274;19.890;2022-07-29T05:23:09;23.80;83.70
66728;DHT22;53641;44.274;19.890;2022-07-29T05:25:38;23.90;83.10
66728;DHT22;53641;44.274;19.890;2022-07-29T05:28:04;24.00;83.10
66728;DHT22;53641;44.274;19.890;2022-07-29T05:30:30;23.90;82.10
66728;DHT22;53641;44.274;19.890;2022-07-29T05:32:56;23.90;82.20
66728;DHT22;53641;44.274;19.890;2022-07-29T05:35:22;23.80;82.90
66728;DHT22;53641;44.274;19.890;2022-07-29T05:37:48;23.80;83.10
66728;DHT22;53641;44.274;19.890;2022-07-29T05:40:14;23.90;82.90
66728;DHT22;53641;44.274;19.890;2022-07-29T05:42:40;23.80;83.10
66728;DHT22;53641;44.274;19.890;2022-07-29T05:45:06;23.80;83.60
66728;DHT22;53641;44.274;19.890;2022-07-29T05:47:32;23.90;82.80
66728;DHT22;53641;44.274;19.890;2022-07-29T05:49:58;24.20;83.00
66728;DHT22;53641;44.274;19.890;2022-07-29T05:52:24;24.30;82.40
66728;DHT22;53641;44.274;19.890;2022-07-29T05:54:49;24.60;81.70
66728;DHT22;53641;44.274;19.890;2022-07-29T05:57:22;25.00;80.10
66728;DHT22;53641;44.274;19.890;2022-07-29T05:59:49;26.00;78.50
66728;DHT22;53641;44.274;19.890;2022-07-29T06:02:15;27.40;75.80
66728;DHT22;53641;44.274;19.890;2022-07-29T06:04:41;29.20;71.90
66728;DHT22;53641;44.274;19.890;2022-07-29T06:07:07;30.70;69.20
66728;DHT22;53641;44.274;19.890;2022-07-29T06:09:34;32.00;65.60
66728;DHT22;53641;44.274;19.890;2022-07-29T06:12:00;33.20;63.60
66728;DHT22;53641;44.274;19.890;2022-07-29T06:14:26;34.40;62.40
66728;DHT22;53641;44.274;19.890;2022-07-29T06:16:55;35.30;60.30
66728;DHT22;53641;44.274;19.890;2022-07-29T06:19:21;36.30;58.10
66728;DHT22;53641;44.274;19.890;2022-07-29T06:21:46;37.10;56.50
66728;DHT22;53641;44.274;19.890;2022-07-29T06:24:14;37.90;55.60
66728;DHT22;53641;44.274;19.890;2022-07-29T06:26:40;38.00;55.00
66728;DHT22;53641;44.274;19.890;2022-07-29T06:29:06;38.50;53.30
66728;DHT22;53641;44.274;19.890;2022-07-29T06:31:33;39.10;52.70
66728;DHT22;53641;44.274;19.890;2022-07-29T06:33:59;39.70;52.20
66728;DHT22;53641;44.274;19.890;2022-07-29T06:36:25;40.10;51.80
66728;DHT22;53641;44.274;19.890;2022-07-29T06:38:51;40.20;51.10
66728;DHT22;53641;44.274;19.890;2022-07-29T06:41:17;39.90;51.80
66728;DHT22;53641;44.274;19.890;2022-07-29T06:43:44;40.30;51.50
66728;DHT22;53641;44.274;19.890;2022-07-29T06:46:12;40.60;51.00
66728;DHT22;53641;44.274;19.890;2022-07-29T06:48:39;40.90;50.60
66728;DHT22;53641;44.274;19.890;2022-07-29T06:51:06;40.40;50.60
66728;DHT22;53641;44.274;19.890;2022-07-29T06:53:32;40.90;50.50
66728;DHT22;53641;44.274;19.890;2022-07-29T06:55:59;41.10;50.40
66728;DHT22;53641;44.274;19.890;2022-07-29T06:58:26;41.30;49.80
66728;DHT22;53641;44.274;19.890;2022-07-29T07:03:18;41.90;49.10
66728;DHT22;53641;44.274;19.890;2022-07-29T07:05:45;42.20;49.70
66728;DHT22;53641;44.274;19.890;2022-07-29T07:08:11;42.50;48.50
66728;DHT22;53641;44.274;19.890;2022-07-29T07:10:37;42.30;47.70
66728;DHT22;53641;44.274;19.890;2022-07-29T07:13:04;42.30;48.10
66728;DHT22;53641;44.274;19.890;2022-07-29T07:15:33;42.10;48.60
66728;DHT22;53641;44.274;19.890;2022-07-29T07:17:59;42.90;48.30
66728;DHT22;53641;44.274;19.890;2022-07-29T07:20:25;43.10;47.30
66728;DHT22;53641;44.274;19.890;2022-07-29T07:22:51;43.80;46.80
66728;DHT22;53641;44.274;19.890;2022-07-29T07:25:16;44.50;46.60
66728;DHT22;53641;44.274;19.890;2022-07-29T07:27:43;45.00;46.30
66728;DHT22;53641;44.274;19.890;2022-07-29T07:30:10;45.20;46.20
66728;DHT22;53641;44.274;19.890;2022-07-29T07:35:03;45.00;45.80
66728;DHT22;53641;44.274;19.890;2022-07-29T07:37:30;44.60;47.00
66728;DHT22;53641;44.274;19.890;2022-07-29T07:39:56;44.80;46.50
66728;DHT22;53641;44.274;19.890;2022-07-29T07:42:22;44.70;45.40
66728;DHT22;53641;44.274;19.890;2022-07-29T07:44:47;45.40;45.80
66728;DHT22;53641;44.274;19.890;2022-07-29T07:47:14;43.80;45.80
66728;DHT22;53641;44.274;19.890;2022-07-29T07:49:40;43.50;47.00
66728;DHT22;53641;44.274;19.890;2022-07-29T07:52:06;42.20;47.60
66728;DHT22;53641;44.274;19.890;2022-07-29T07:54:31;42.30;47.90
66728;DHT22;53641;44.274;19.890;2022-07-29T07:56:57;43.70;47.90
66728;DHT22;53641;44.274;19.890;2022-07-29T07:59:23;44.70;46.90
66728;DHT22;53641;44.274;19.890;2022-07-29T08:01:49;44.70;46.60
66728;DHT22;53641;44.274;19.890;2022-07-29T08:04:15;46.20;45.60
66728;DHT22;53641;44.274;19.890;2022-07-29T08:06:41;47.20;44.70
66728;DHT22;53641;44.274;19.890;2022-07-29T08:09:07;47.90;44.30
66728;DHT22;53641;44.274;19.890;2022-07-29T08:11:33;48.60;44.00
66728;DHT22;53641;44.274;19.890;2022-07-29T08:13:59;48.70;44.20
66728;DHT22;53641;44.274;19.890;2022-07-29T08:16:26;47.10;44.60
66728;DHT22;53641;44.274;19.890;2022-07-29T08:18:52;48.30;44.20
66728;DHT22;53641;44.274;19.890;2022-07-29T08:21:23;47.90;42.90
66728;DHT22;53641;44.274;19.890;2022-07-29T08:23:49;49.50;43.30
66728;DHT22;53641;44.274;19.890;2022-07-29T08:26:19;46.90;43.80
66728;DHT22;53641;44.274;19.890;2022-07-29T08:28:46;47.60;44.70
66728;DHT22;53641;44.274;19.890;2022-07-29T08:31:15;48.20;44.10
66728;DHT22;53641;44.274;19.890;2022-07-29T08:33:41;47.60;43.90
66728;DHT22;53641;44.274;19.890;2022-07-29T08:36:07;47.30;44.10
66728;DHT22;53641;44.274;19.890;2022-07-29T08:38:33;46.30;44.90
66728;DHT22;53641;44.274;19.890;2022-07-29T08:41:00;46.10;45.10
66728;DHT22;53641;44.274;19.890;2022-07-29T08:43:28;46.00;45.70
66728;DHT22;53641;44.274;19.890;2022-07-29T08:48:22;47.20;43.70
66728;DHT22;53641;44.274;19.890;2022-07-29T08:50:52;47.40;44.40
66728;DHT22;53641;44.274;19.890;2022-07-29T08:53:18;48.30;43.50
66728;DHT22;53641;44.274;19.890;2022-07-29T08:55:46;48.10;43.20
66728;DHT22;53641;44.274;19.890;2022-07-29T08:58:13;48.80;42.80
66728;DHT22;53641;44.274;19.890;2022-07-29T09:00:42;48.20;43.10
66728;DHT22;53641;44.274;19.890;2022-07-29T09:03:09;47.20;43.80
66728;DHT22;53641;44.274;19.890;2022-07-29T09:05:41;46.20;44.10
66728;DHT22;53641;44.274;19.890;2022-07-29T09:08:07;46.30;44.10
66728;DHT22;53641;44.274;19.890;2022-07-29T09:10:35;46.20;43.80
66728;DHT22;53641;44.274;19.890;2022-07-29T09:13:00;46.00;44.40
66728;DHT22;53641;44.274;19.890;2022-07-29T09:15:26;46.20;44.40
66728;DHT22;53641;44.274;19.890;2022-07-29T09:17:52;46.70;44.20
66728;DHT22;53641;44.274;19.890;2022-07-29T09:20:20;47.40;44.30
66728;DHT22;53641;44.274;19.890;2022-07-29T09:22:47;48.10;43.30
66728;DHT22;53641;44.274;19.890;2022-07-29T09:25:15;46.90;43.50
66728;DHT22;53641;44.274;19.890;2022-07-29T09:28:05;45.20;44.30
66728;DHT22;53641;44.274;19.890;2022-07-29T09:30:31;43.50;45.50
66728;DHT22;53641;44.274;19.890;2022-07-29T09:32:58;41.90;46.80
66728;DHT22;53641;44.274;19.890;2022-07-29T09:35:27;41.60;46.50
66728;DHT22;53641;44.274;19.890;2022-07-29T09:37:53;41.00;47.10
66728;DHT22;53641;44.274;19.890;2022-07-29T09:40:21;40.90;46.70
66728;DHT22;53641;44.274;19.890;2022-07-29T09:42:48;39.30;47.50
66728;DHT22;53641;44.274;19.890;2022-07-29T09:45:28;39.40;48.20
66728;DHT22;53641;44.274;19.890;2022-07-29T09:47:54;39.10;48.60
66728;DHT22;53641;44.274;19.890;2022-07-29T09:50:22;38.50;48.90
66728;DHT22;53641;44.274;19.890;2022-07-29T09:52:59;37.80;49.40
66728;DHT22;53641;44.274;19.890;2022-07-29T09:55:25;37.00;50.90
66728;DHT22;53641;44.274;19.890;2022-07-29T09:57:51;36.80;51.00
66728;DHT22;53641;44.274;19.890;2022-07-29T10:00:19;36.10;51.50
66728;DHT22;53641;44.274;19.890;2022-07-29T10:02:46;35.90;52.40
66728;DHT22;53641;44.274;19.890;2022-07-29T10:05:23;36.10;51.20
66728;DHT22;53641;44.274;19.890;2022-07-29T10:07:57;36.10;51.40
66728;DHT22;53641;44.274;19.890;2022-07-29T10:10:25;36.10;51.50
66728;DHT22;53641;44.274;19.890;2022-07-29T10:13:00;35.90;52.80
66728;DHT22;53641;44.274;19.890;2022-07-29T10:15:28;35.50;52.20
66728;DHT22;53641;44.274;19.890;2022-07-29T10:17:56;35.40;52.10
66728;DHT22;53641;44.274;19.890;2022-07-29T10:20:23;35.30;52.40
66728;DHT22;53641;44.274;19.890;2022-07-29T10:22:50;34.40;53.30
66728;DHT22;53641;44.274;19.890;2022-07-29T10:25:17;33.90;54.60
66728;DHT22;53641;44.274;19.890;2022-07-29T10:27:44;33.90;54.90
66728;DHT22;53641;44.274;19.890;2022-07-29T10:30:12;34.10;54.10
66728;DHT22;53641;44.274;19.890;2022-07-29T10:32:51;34.20;53.50
66728;DHT22;53641;44.274;19.890;2022-07-29T10:35:57;34.30;53.60
66728;DHT22;53641;44.274;19.890;2022-07-29T10:39:00;34.40;53.80
66728;DHT22;53641;44.274;19.890;2022-07-29T10:42:36;34.40;54.20
66728;DHT22;53641;44.274;19.890;2022-07-29T10:44:25;34.60;53.90
66728;DHT22;53641;44.274;19.890;2022-07-29T10:46:51;34.70;53.80
66728;DHT22;53641;44.274;19.890;2022-07-29T10:49:22;34.70;55.00
66728;DHT22;53641;44.274;19.890;2022-07-29T10:52:06;34.60;53.60
66728;DHT22;53641;44.274;19.890;2022-07-29T10:54:40;34.50;53.50
66728;DHT22;53641;44.274;19.890;2022-07-29T10:57:19;34.60;54.10
66728;DHT22;53641;44.274;19.890;2022-07-29T11:00:27;34.80;54.00
66728;DHT22;53641;44.274;19.890;2022-07-29T11:02:54;34.90;54.10
66728;DHT22;53641;44.274;19.890;2022-07-29T11:05:22;34.90;53.60
66728;DHT22;53641;44.274;19.890;2022-07-29T11:08:17;34.60;53.60
66728;DHT22;53641;44.274;19.890;2022-07-29T11:10:44;34.50;54.50
66728;DHT22;53641;44.274;19.890;2022-07-29T11:13:10;34.30;53.90
66728;DHT22;53641;44.274;19.890;2022-07-29T11:15:58;34.00;54.40
66728;DHT22;53641;44.274;19.890;2022-07-29T11:18:24;33.80;54.20
66728;DHT22;53641;44.274;19.890;2022-07-29T11:20:52;33.70;54.60
66728;DHT22;53641;44.274;19.890;2022-07-29T11:23:26;33.50;55.30
66728;DHT22;53641;44.274;19.890;2022-07-29T11:26:18;33.50;55.20
66728;DHT22;53641;44.274;19.890;2022-07-29T11:29:03;33.70;54.70
66728;DHT22;53641;44.274;19.890;2022-07-29T11:31:41;33.70;55.60
66728;DHT22;53641;44.274;19.890;2022-07-29T11:34:20;33.80;54.50
66728;DHT22;53641;44.274;19.890;2022-07-29T11:37:16;33.70;54.80
66728;DHT22;53641;44.274;19.890;2022-07-29T11:39:43;33.50;54.20
66728;DHT22;53641;44.274;19.890;2022-07-29T11:42:38;33.50;54.30
66728;DHT22;53641;44.274;19.890;2022-07-29T11:45:13;33.60;54.20
66728;DHT22;53641;44.274;19.890;2022-07-29T11:47:41;33.80;55.00
66728;DHT22;53641;44.274;19.890;2022-07-29T11:50:12;34.10;55.20
66728;DHT22;53641;44.274;19.890;2022-07-29T11:52:39;34.30;55.00
66728;DHT22;53641;44.274;19.890;2022-07-29T11:55:11;34.50;54.00
66728;DHT22;53641;44.274;19.890;2022-07-29T11:57:45;34.60;53.90
66728;DHT22;53641;44.274;19.890;2022-07-29T12:00:12;34.60;54.00
66728;DHT22;53641;44.274;19.890;2022-07-29T12:02:45;34.40;53.90
66728;DHT22;53641;44.274;19.890;2022-07-29T12:05:11;34.40;54.20
66728;DHT22;53641;44.274;19.890;2022-07-29T12:07:38;34.40;53.90
66728;DHT22;53641;44.274;19.890;2022-07-29T12:10:05;34.40;54.20
66728;DHT22;53641;44.274;19.890;2022-07-29T12:12:32;34.40;54.00
66728;DHT22;53641;44.274;19.890;2022-07-29T12:14:57;34.40;54.10
66728;DHT22;53641;44.274;19.890;2022-07-29T12:17:34;34.20;54.20
66728;DHT22;53641;44.274;19.890;2022-07-29T12:20:04;34.10;53.70
66728;DHT22;53641;44.274;19.890;2022-07-29T12:22:32;34.20;54.90
66728;DHT22;53641;44.274;19.890;2022-07-29T12:25:04;34.30;54.40
66728;DHT22;53641;44.274;19.890;2022-07-29T12:27:30;34.40;53.60
66728;DHT22;53641;44.274;19.890;2022-07-29T12:29:57;34.40;53.80
66728;DHT22;53641;44.274;19.890;2022-07-29T12:32:23;34.30;54.00
66728;DHT22;53641;44.274;19.890;2022-07-29T12:34:50;34.00;53.60
66728;DHT22;53641;44.274;19.890;2022-07-29T12:37:16;33.80;54.20
66728;DHT22;53641;44.274;19.890;2022-07-29T12:39:42;33.70;54.20
66728;DHT22;53641;44.274;19.890;2022-07-29T12:42:12;33.50;55.00
66728;DHT22;53641;44.274;19.890;2022-07-29T12:44:45;33.30;54.90
66728;DHT22;53641;44.274;19.890;2022-07-29T12:47:11;33.40;55.10
66728;DHT22;53641;44.274;19.890;2022-07-29T12:49:37;33.40;54.80
66728;DHT22;53641;44.274;19.890;2022-07-29T12:52:24;33.50;54.70
66728;DHT22;53641;44.274;19.890;2022-07-29T12:54:50;33.70;54.60
66728;DHT22;53641;44.274;19.890;2022-07-29T12:57:16;33.70;54.00
66728;DHT22;53641;44.274;19.890;2022-07-29T12:59:42;33.70;54.10
66728;DHT22;53641;44.274;19.890;2022-07-29T13:02:20;33.80;54.50
66728;DHT22;53641;44.274;19.890;2022-07-29T13:04:55;33.70;54.20
66728;DHT22;53641;44.274;19.890;2022-07-29T13:07:27;33.60;54.70
66728;DHT22;53641;44.274;19.890;2022-07-29T13:09:58;33.60;54.60
66728;DHT22;53641;44.274;19.890;2022-07-29T13:12:34;33.80;55.00
66728;DHT22;53641;44.274;19.890;2022-07-29T13:15:00;33.90;54.90
66728;DHT22;53641;44.274;19.890;2022-07-29T13:17:26;34.00;54.20
66728;DHT22;53641;44.274;19.890;2022-07-29T13:20:06;33.90;54.00
66728;DHT22;53641;44.274;19.890;2022-07-29T13:22:34;33.90;54.20
66728;DHT22;53641;44.274;19.890;2022-07-29T13:25:02;33.90;54.40
66728;DHT22;53641;44.274;19.890;2022-07-29T13:27:29;33.80;54.50
66728;DHT22;53641;44.274;19.890;2022-07-29T13:29:57;33.90;54.90
66728;DHT22;53641;44.274;19.890;2022-07-29T13:32:23;33.80;54.40
66728;DHT22;53641;44.274;19.890;2022-07-29T13:34:51;33.70;54.40
66728;DHT22;53641;44.274;19.890;2022-07-29T13:37:18;33.80;54.20
66728;DHT22;53641;44.274;19.890;2022-07-29T13:39:44;33.80;54.70
66728;DHT22;53641;44.274;19.890;2022-07-29T13:42:10;33.70;55.00
66728;DHT22;53641;44.274;19.890;2022-07-29T13:44:39;33.50;54.60
66728;DHT22;53641;44.274;19.890;2022-07-29T13:47:05;33.50;54.70
66728;DHT22;53641;44.274;19.890;2022-07-29T13:49:31;33.60;54.60
66728;DHT22;53641;44.274;19.890;2022-07-29T13:51:57;33.60;55.20
66728;DHT22;53641;44.274;19.890;2022-07-29T13:54:23;33.60;54.70
66728;DHT22;53641;44.274;19.890;2022-07-29T13:56:50;33.60;54.70
66728;DHT22;53641;44.274;19.890;2022-07-29T13:59:16;33.90;55.00
66728;DHT22;53641;44.274;19.890;2022-07-29T14:01:42;33.90;54.60
66728;DHT22;53641;44.274;19.890;2022-07-29T14:04:08;34.00;54.80
66728;DHT22;53641;44.274;19.890;2022-07-29T14:06:34;33.90;54.60
66728;DHT22;53641;44.274;19.890;2022-07-29T14:09:00;33.90;54.60
66728;DHT22;53641;44.274;19.890;2022-07-29T14:11:26;33.90;54.50
66728;DHT22;53641;44.274;19.890;2022-07-29T14:13:52;33.80;54.60
66728;DHT22;53641;44.274;19.890;2022-07-29T14:16:18;33.70;54.70
66728;DHT22;53641;44.274;19.890;2022-07-29T14:18:43;33.70;54.40
66728;DHT22;53641;44.274;19.890;2022-07-29T14:21:09;33.80;54.70
66728;DHT22;53641;44.274;19.890;2022-07-29T14:23:36;33.80;54.60
66728;DHT22;53641;44.274;19.890;2022-07-29T14:26:02;33.90;54.80
66728;DHT22;53641;44.274;19.890;2022-07-29T14:28:28;33.90;55.20
66728;DHT22;53641;44.274;19.890;2022-07-29T14:30:53;33.70;54.40
66728;DHT22;53641;44.274;19.890;2022-07-29T14:33:19;33.50;54.50
66728;DHT22;53641;44.274;19.890;2022-07-29T14:35:45;33.30;54.60
66728;DHT22;53641;44.274;19.890;2022-07-29T14:38:11;33.30;54.70
66728;DHT22;53641;44.274;19.890;2022-07-29T14:40:36;33.40;55.10
66728;DHT22;53641;44.274;19.890;2022-07-29T14:43:03;33.50;54.50
66728;DHT22;53641;44.274;19.890;2022-07-29T14:45:29;33.60;54.50
66728;DHT22;53641;44.274;19.890;2022-07-29T14:47:56;33.60;54.40
66728;DHT22;53641;44.274;19.890;2022-07-29T14:50:22;33.60;54.50
66728;DHT22;53641;44.274;19.890;2022-07-29T14:52:48;33.60;54.60
66728;DHT22;53641;44.274;19.890;2022-07-29T14:55:14;33.60;55.00
66728;DHT22;53641;44.274;19.890;2022-07-29T14:57:40;33.50;54.90
66728;DHT22;53641;44.274;19.890;2022-07-29T15:00:07;33.50;55.10
66728;DHT22;53641;44.274;19.890;2022-07-29T15:02:33;33.50;54.90
66728;DHT22;53641;44.274;19.890;2022-07-29T15:04:59;33.50;55.30
66728;DHT22;53641;44.274;19.890;2022-07-29T15:07:25;33.40;55.30
66728;DHT22;53641;44.274;19.890;2022-07-29T15:09:51;33.40;55.00
66728;DHT22;53641;44.274;19.890;2022-07-29T15:12:17;33.40;54.90
66728;DHT22;53641;44.274;19.890;2022-07-29T15:14:42;33.40;55.30
66728;DHT22;53641;44.274;19.890;2022-07-29T15:17:08;33.30;54.70
66728;DHT22;53641;44.274;19.890;2022-07-29T15:19:34;33.40;54.40
66728;DHT22;53641;44.274;19.890;2022-07-29T15:22:00;33.30;54.40
66728;DHT22;53641;44.274;19.890;2022-07-29T15:24:26;33.30;55.30
66728;DHT22;53641;44.274;19.890;2022-07-29T15:26:52;33.30;54.80
66728;DHT22;53641;44.274;19.890;2022-07-29T15:29:18;33.30;54.20
66728;DHT22;53641;44.274;19.890;2022-07-29T15:31:44;33.30;54.60
66728;DHT22;53641;44.274;19.890;2022-07-29T15:34:12;33.30;54.50